createdAt,value
2019-06-27T00:00:26.668Z,72.55
2019-06-27T00:02:56.419Z,72.09
2019-06-27T00:05:26.203Z,72.92
2019-06-27T00:07:56.206Z,72.42
2019-06-27T00:10:26.061Z,71.96
2019-06-27T00:12:55.951Z,72.35
2019-06-27T00:15:25.856Z,73.22
2019-06-27T00:17:55.789Z,72.78
2019-06-27T00:20:25.636Z,72.67
2019-06-27T00:22:55.404Z,71.74
2019-06-27T00:25:25.399Z,72.19
2019-06-27T00:27:55.107Z,71.81
2019-06-27T00:30:24.933Z,72.63
2019-06-27T00:32:54.723Z,73.81
2019-06-27T00:35:24.503Z,74.07
2019-06-27T00:37:54.292Z,73.02
2019-06-27T00:40:24.177Z,72.18
2019-06-27T00:42:54.049Z,71.02
2019-06-27T00:45:23.826Z,72.24
2019-06-27T00:47:53.597Z,73.64
2019-06-27T00:50:23.461Z,72.65
2019-06-27T00:52:53.285Z,72.05
2019-06-27T00:55:23.072Z,71.73
2019-06-27T00:57:52.903Z,71.67
2019-06-27T01:00:22.908Z,71.21
2019-06-27T01:02:52.758Z,71.70
2019-06-27T01:05:22.640Z,72.17
2019-06-27T01:07:52.421Z,71.34
2019-06-27T01:10:22.475Z,71.26
2019-06-27T01:12:52.286Z,71.91
2019-06-27T01:15:22.113Z,72.22
2019-06-27T01:17:52.049Z,71.89
2019-06-27T01:20:21.879Z,72.32
2019-06-27T01:22:51.637Z,72.69
2019-06-27T01:25:21.452Z,72.33
2019-06-27T01:27:51.454Z,71.78
2019-06-27T01:30:21.421Z,72.74
2019-06-27T01:32:51.138Z,72.71
2019-06-27T01:35:20.983Z,72.08
2019-06-27T01:37:50.798Z,71.78
2019-06-27T01:40:20.730Z,71.39
2019-06-27T01:42:50.632Z,70.91
2019-06-27T01:45:31.112Z,71.06
2019-06-27T01:48:00.918Z,70.94
2019-06-27T01:50:30.758Z,71.55
2019-06-27T01:53:00.473Z,71.50
2019-06-27T01:55:30.251Z,71.81
2019-06-27T01:58:00.249Z,71.73
2019-06-27T02:00:30.107Z,71.17
2019-06-27T02:02:59.986Z,71.15
2019-06-27T02:05:29.881Z,71.44
2019-06-27T02:07:59.714Z,72.65
2019-06-27T02:10:29.559Z,71.78
2019-06-27T02:12:59.388Z,72.80
2019-06-27T02:15:29.253Z,72.48
2019-06-27T02:17:59.085Z,72.44
2019-06-27T02:20:29.042Z,72.71
2019-06-27T02:22:59.001Z,72.90
2019-06-27T02:25:29.187Z,73.05
2019-06-27T02:28:04.100Z,72.14
2019-06-27T02:30:42.140Z,73.11
2019-06-27T02:33:12.570Z,72.51
2019-06-27T02:35:42.510Z,73.37
2019-06-27T02:38:12.299Z,73.98
2019-06-27T02:40:41.985Z,73.36
2019-06-27T02:43:11.845Z,73.67
2019-06-27T02:45:41.635Z,73.32
2019-06-27T02:48:11.356Z,73.71
2019-06-27T02:50:41.132Z,74.03
2019-06-27T02:53:10.905Z,72.99
2019-06-27T02:55:40.781Z,73.28
2019-06-27T02:58:28.445Z,74.56
2019-06-27T03:00:42.219Z,73.97
2019-06-27T03:03:12.014Z,74.56
2019-06-27T03:05:41.937Z,75.13
2019-06-27T03:08:11.735Z,75.64
2019-06-27T03:10:41.600Z,76.04
2019-06-27T03:13:11.482Z,77.32
2019-06-27T03:15:41.412Z,77.12
2019-06-27T03:18:11.404Z,76.93
2019-06-27T03:20:41.377Z,77.10
2019-06-27T03:23:11.295Z,77.98
2019-06-27T03:25:41.129Z,76.82
2019-06-27T03:28:11.032Z,75.88
2019-06-27T03:30:40.965Z,74.65
2019-06-27T03:33:10.939Z,74.45
2019-06-27T03:35:40.731Z,75.47
2019-06-27T03:38:10.599Z,75.60
2019-06-27T03:40:40.417Z,75.38
2019-06-27T03:43:10.317Z,75.37
2019-06-27T03:45:40.078Z,73.99
2019-06-27T03:48:09.867Z,75.39
2019-06-27T03:50:39.851Z,73.90
2019-06-27T03:53:09.764Z,73.34
2019-06-27T03:55:39.524Z,72.50
2019-06-27T03:58:09.323Z,73.38
2019-06-27T04:00:39.258Z,72.45
2019-06-27T04:03:09.061Z,70.76
2019-06-27T04:05:38.863Z,71.31
2019-06-27T04:08:08.646Z,72.73
2019-06-27T04:10:38.594Z,71.89
2019-06-27T04:13:08.422Z,70.67
2019-06-27T04:15:38.181Z,71.17
2019-06-27T04:18:08.044Z,69.92
2019-06-27T04:20:37.874Z,69.83
2019-06-27T04:23:07.727Z,69.41
2019-06-27T04:25:37.432Z,67.83
2019-06-27T04:28:07.311Z,68.23
2019-06-27T04:30:37.368Z,68.13
2019-06-27T04:33:07.386Z,68.39
2019-06-27T04:35:37.373Z,68.26
2019-06-27T04:38:07.228Z,68.04
2019-06-27T04:40:37.120Z,66.32
2019-06-27T04:43:06.992Z,65.89
2019-06-27T04:45:36.781Z,65.13
2019-06-27T04:48:06.559Z,65.41
2019-06-27T04:50:36.378Z,65.35
2019-06-27T04:53:06.254Z,65.43
2019-06-27T04:55:36.068Z,67.24
2019-06-27T04:58:05.944Z,67.19
2019-06-27T05:00:35.775Z,68.00
2019-06-27T05:03:05.722Z,66.27
2019-06-27T05:05:35.493Z,67.00
2019-06-27T05:08:05.343Z,65.55
2019-06-27T05:10:35.226Z,63.97
2019-06-27T05:13:04.948Z,63.52
2019-06-27T05:15:34.812Z,63.14
2019-06-27T05:18:04.729Z,62.60
2019-06-27T05:20:34.615Z,63.69
2019-06-27T05:23:04.475Z,62.66
2019-06-27T05:25:34.277Z,64.19
2019-06-27T05:28:04.088Z,64.72
2019-06-27T05:30:34.070Z,63.90
2019-06-27T05:33:03.832Z,62.77
2019-06-27T05:35:33.698Z,62.73
2019-06-27T05:38:03.524Z,62.09
2019-06-27T05:40:33.435Z,60.99
2019-06-27T05:43:03.365Z,60.83
2019-06-27T05:45:33.127Z,62.62
2019-06-27T05:48:03.036Z,63.23
2019-06-27T05:50:32.800Z,62.31
2019-06-27T05:53:02.603Z,60.37
2019-06-27T05:55:32.447Z,59.73
2019-06-27T05:58:02.422Z,58.43
2019-06-27T06:00:32.403Z,60.81
2019-06-27T06:03:02.222Z,59.32
2019-06-27T06:05:32.118Z,58.10
2019-06-27T06:08:01.844Z,59.32
2019-06-27T06:10:31.808Z,58.47
2019-06-27T06:13:01.700Z,59.25
2019-06-27T06:15:31.847Z,57.87
2019-06-27T06:18:01.807Z,58.47
2019-06-27T06:20:31.610Z,57.10
2019-06-27T06:23:01.515Z,59.21
2019-06-27T06:25:31.317Z,59.17
2019-06-27T06:28:01.254Z,58.60
2019-06-27T06:30:43.899Z,58.35
2019-06-27T06:33:02.600Z,58.24
2019-06-27T06:35:32.315Z,59.57
2019-06-27T06:38:02.099Z,57.71
2019-06-27T06:40:31.976Z,55.62
2019-06-27T06:43:01.822Z,54.53
2019-06-27T06:45:31.630Z,54.34
2019-06-27T06:48:01.526Z,52.33
2019-06-27T06:50:31.364Z,50.26
2019-06-27T06:53:01.312Z,49.63
2019-06-27T06:55:31.454Z,47.08
2019-06-27T06:58:01.205Z,46.58
2019-06-27T07:00:30.965Z,44.15
2019-06-27T07:03:00.778Z,42.92
2019-06-27T07:05:30.680Z,43.07
2019-06-27T07:08:00.406Z,44.67
2019-06-27T07:10:30.243Z,46.63
2019-06-27T07:13:00.018Z,48.40
2019-06-27T07:15:30.719Z,50.43
2019-06-27T07:18:00.449Z,45.92
2019-06-27T07:20:30.238Z,44.25
2019-06-27T07:23:00.047Z,39.91
2019-06-27T07:25:29.815Z,43.35
2019-06-27T07:27:59.515Z,45.38
2019-06-27T07:30:29.464Z,46.50
2019-06-27T07:32:59.339Z,50.16
2019-06-27T07:35:29.212Z,51.40
2019-06-27T07:37:59.104Z,46.31
2019-06-27T07:40:28.950Z,42.10
2019-06-27T07:42:58.871Z,46.88
2019-06-27T07:45:28.654Z,43.44
2019-06-27T07:47:58.507Z,38.75
2019-06-27T07:50:28.400Z,40.37
2019-06-27T07:52:58.309Z,42.92
2019-06-27T07:55:28.175Z,41.61
2019-06-27T07:57:57.860Z,36.33
2019-06-27T08:00:27.680Z,37.75
2019-06-27T08:02:57.586Z,36.51
2019-06-27T08:05:27.495Z,34.91
2019-06-27T08:07:57.275Z,36.26
2019-06-27T08:10:27.047Z,36.50
2019-06-27T08:12:56.743Z,35.30
2019-06-27T08:15:26.517Z,33.07
2019-06-27T08:17:56.352Z,30.87
2019-06-27T08:20:26.201Z,32.06
2019-06-27T08:22:55.970Z,29.99
2019-06-27T08:25:25.737Z,31.22
2019-06-27T08:27:55.648Z,32.42
2019-06-27T08:30:25.484Z,30.58
2019-06-27T08:32:55.264Z,30.01
2019-06-27T08:35:25.058Z,28.72
2019-06-27T08:37:54.906Z,28.26
2019-06-27T08:40:24.743Z,27.25
2019-06-27T08:42:54.618Z,26.44
2019-06-27T08:45:24.304Z,29.28
2019-06-27T08:47:54.182Z,28.52
2019-06-27T08:50:23.986Z,29.73
2019-06-27T08:52:53.765Z,30.46
2019-06-27T08:55:23.630Z,31.32
2019-06-27T08:57:53.338Z,29.48
2019-06-27T09:00:23.062Z,28.61
2019-06-27T09:02:52.776Z,27.43
2019-06-27T09:05:22.621Z,31.75
2019-06-27T09:07:52.560Z,30.38
2019-06-27T09:10:22.503Z,30.68
2019-06-27T09:12:52.258Z,30.24
2019-06-27T09:15:22.108Z,27.83
2019-06-27T09:17:52.021Z,28.64
2019-06-27T09:20:22.151Z,33.12
2019-06-27T09:22:51.840Z,31.62
2019-06-27T09:25:21.655Z,30.36
2019-06-27T09:27:51.491Z,31.39
2019-06-27T09:30:22.211Z,30.04
2019-06-27T09:32:52.121Z,31.01
2019-06-27T09:35:22.019Z,30.96
2019-06-27T09:37:51.920Z,31.73
2019-06-27T09:40:22.920Z,31.61
2019-06-27T09:42:52.680Z,34.17
2019-06-27T09:45:22.632Z,31.88
2019-06-27T09:47:52.490Z,30.76
2019-06-27T09:50:22.527Z,29.16
2019-06-27T09:52:52.348Z,28.97
2019-06-27T09:55:23.034Z,29.33
2019-06-27T09:57:52.869Z,28.76
2019-06-27T10:00:23.393Z,29.41
2019-06-27T10:02:53.315Z,28.41
2019-06-27T10:05:23.056Z,27.48
2019-06-27T10:07:52.783Z,27.71
2019-06-27T10:10:22.534Z,29.49
2019-06-27T10:12:52.275Z,29.67
2019-06-27T10:15:22.249Z,28.33
2019-06-27T10:17:51.954Z,30.03
2019-06-27T10:20:21.938Z,30.19
2019-06-27T10:22:51.793Z,30.74
2019-06-27T10:25:21.605Z,28.86
2019-06-27T10:27:51.424Z,28.11
2019-06-27T10:30:22.359Z,29.82
2019-06-27T10:32:59.033Z,31.39
2019-06-27T10:35:23.828Z,34.25
2019-06-27T10:37:53.771Z,31.18
2019-06-27T10:40:23.599Z,29.79
2019-06-27T10:42:53.311Z,29.35
2019-06-27T10:45:23.162Z,32.44
2019-06-27T10:47:52.829Z,34.23
2019-06-27T10:50:22.680Z,33.79
2019-06-27T10:52:52.484Z,31.73
2019-06-27T10:55:22.234Z,33.11
2019-06-27T10:57:52.029Z,31.62
2019-06-27T11:00:23.443Z,32.72
2019-06-27T11:02:53.221Z,31.17
2019-06-27T11:05:23.102Z,30.79
2019-06-27T11:07:52.892Z,29.57
2019-06-27T11:10:22.806Z,30.71
2019-06-27T11:12:52.573Z,31.71
2019-06-27T11:15:22.425Z,31.91
2019-06-27T11:17:52.405Z,31.01
2019-06-27T11:20:22.232Z,30.20
2019-06-27T11:22:52.084Z,30.67
2019-06-27T11:25:21.949Z,30.06
2019-06-27T11:27:51.844Z,32.29
2019-06-27T11:30:21.846Z,31.66
2019-06-27T11:32:51.705Z,35.34
2019-06-27T11:35:21.598Z,34.64
2019-06-27T11:37:51.304Z,33.79
2019-06-27T11:40:21.649Z,32.25
2019-06-27T11:42:52.107Z,32.83
2019-06-27T11:45:22.010Z,31.43
2019-06-27T11:47:51.772Z,32.52
2019-06-27T11:50:21.630Z,33.06
2019-06-27T11:52:51.487Z,33.51
2019-06-27T11:55:21.280Z,33.09
2019-06-27T11:57:51.054Z,32.45
2019-06-27T12:00:21.013Z,33.26
2019-06-27T12:02:50.986Z,34.64
2019-06-27T12:05:20.889Z,36.52
2019-06-27T12:07:50.603Z,35.62
2019-06-27T12:10:20.836Z,34.79
2019-06-27T12:12:50.585Z,34.48
2019-06-27T12:15:20.479Z,35.18
2019-06-27T12:17:50.360Z,34.52
2019-06-27T12:20:20.277Z,33.71
2019-06-27T12:22:50.052Z,33.74
2019-06-27T12:25:19.864Z,34.47
2019-06-27T12:27:49.618Z,35.55
2019-06-27T12:30:19.591Z,34.08
2019-06-27T12:32:52.286Z,34.72
2019-06-27T12:35:20.913Z,34.00
2019-06-27T12:37:50.733Z,35.78
2019-06-27T12:40:21.087Z,33.63
2019-06-27T12:42:50.842Z,33.46
2019-06-27T12:45:20.803Z,34.33
2019-06-27T12:47:50.635Z,34.90
2019-06-27T12:50:20.459Z,35.23
2019-06-27T12:52:50.177Z,34.51
2019-06-27T12:55:20.660Z,34.30
2019-06-27T12:57:50.588Z,34.13
2019-06-27T13:00:20.720Z,33.59
2019-06-27T13:02:50.593Z,35.94
2019-06-27T13:05:20.732Z,37.70
2019-06-27T13:07:52.560Z,39.07
2019-06-27T13:10:22.478Z,37.25
2019-06-27T13:12:52.317Z,37.11
2019-06-27T13:15:22.164Z,35.80
2019-06-27T13:17:52.039Z,37.09
2019-06-27T13:20:22.040Z,38.44
2019-06-27T13:22:51.717Z,38.18
2019-06-27T13:25:21.604Z,37.35
2019-06-27T13:27:51.586Z,36.94
2019-06-27T13:30:21.670Z,36.75
2019-06-27T13:32:51.514Z,35.76
2019-06-27T13:35:21.389Z,33.80
2019-06-27T13:37:51.312Z,34.92
2019-06-27T13:40:21.469Z,35.32
2019-06-27T13:42:51.303Z,34.94
2019-06-27T13:45:21.167Z,34.63
2019-06-27T13:47:50.927Z,36.62
2019-06-27T13:50:20.772Z,36.47
2019-06-27T13:52:54.354Z,36.07
2019-06-27T13:55:24.206Z,33.70
2019-06-27T13:57:57.379Z,35.19
2019-06-27T14:00:34.103Z,37.11
2019-06-27T14:03:03.937Z,37.61
2019-06-27T14:05:33.825Z,36.34
2019-06-27T14:08:03.660Z,35.04
2019-06-27T14:10:33.475Z,34.62
2019-06-27T14:13:03.437Z,36.95
2019-06-27T14:15:33.280Z,38.04
2019-06-27T14:18:03.110Z,38.08
2019-06-27T14:20:32.855Z,36.28
2019-06-27T14:23:02.709Z,36.25
2019-06-27T14:25:32.587Z,37.33
2019-06-27T14:28:02.661Z,36.63
2019-06-27T14:30:32.445Z,35.16
2019-06-27T14:33:02.153Z,35.37
2019-06-27T14:35:31.989Z,37.46
2019-06-27T14:38:01.790Z,36.35
2019-06-27T14:40:31.789Z,36.70
2019-06-27T14:43:01.501Z,37.00
2019-06-27T14:45:31.260Z,37.15
2019-06-27T14:48:00.984Z,36.57
2019-06-27T14:50:30.886Z,37.47
2019-06-27T14:53:00.761Z,37.83
2019-06-27T14:55:30.551Z,38.75
2019-06-27T14:58:00.320Z,37.85
2019-06-27T15:00:30.349Z,37.94
2019-06-27T15:03:00.093Z,37.46
2019-06-27T15:05:33.002Z,39.22
2019-06-27T15:08:01.483Z,40.14
2019-06-27T15:10:31.271Z,39.59
2019-06-27T15:13:01.104Z,38.05
2019-06-27T15:15:30.832Z,40.11
2019-06-27T15:18:00.631Z,39.39
2019-06-27T15:20:30.529Z,39.26
2019-06-27T15:23:00.286Z,38.68
2019-06-27T15:25:30.135Z,40.19
2019-06-27T15:27:59.898Z,39.26
2019-06-27T15:30:29.692Z,40.26
2019-06-27T15:32:59.563Z,39.43
2019-06-27T15:35:29.384Z,39.45
2019-06-27T15:37:59.148Z,40.17
2019-06-27T15:40:28.994Z,39.43
2019-06-27T15:42:58.771Z,39.51
2019-06-27T15:45:28.629Z,38.31
2019-06-27T15:47:58.408Z,38.71
2019-06-27T15:50:28.234Z,39.35
2019-06-27T15:52:57.956Z,39.51
2019-06-27T15:55:27.750Z,40.42
2019-06-27T15:57:57.571Z,41.58
2019-06-27T16:00:27.429Z,40.75
2019-06-27T16:02:57.859Z,40.17
2019-06-27T16:05:27.878Z,39.85
2019-06-27T16:07:57.675Z,41.67
2019-06-27T16:10:27.449Z,42.12
2019-06-27T16:12:57.806Z,41.08
2019-06-27T16:15:27.589Z,41.15
2019-06-27T16:17:57.302Z,40.90
2019-06-27T16:20:27.285Z,40.80
2019-06-27T16:22:57.214Z,39.96
2019-06-27T16:25:27.091Z,41.09
2019-06-27T16:27:56.802Z,40.68
2019-06-27T16:30:26.659Z,41.89
2019-06-27T16:32:56.474Z,42.22
2019-06-27T16:35:26.244Z,41.28
2019-06-27T16:37:55.962Z,41.44
2019-06-27T16:40:25.835Z,42.07
2019-06-27T16:42:55.785Z,41.22
2019-06-27T16:45:25.657Z,41.26
2019-06-27T16:47:55.450Z,40.89
2019-06-27T16:50:25.283Z,40.69
2019-06-27T16:52:55.156Z,40.89
2019-06-27T16:55:25.118Z,40.73
2019-06-27T16:57:54.824Z,41.35
2019-06-27T17:00:25.645Z,42.17
2019-06-27T17:02:55.489Z,42.05
2019-06-27T17:05:25.465Z,43.22
2019-06-27T17:07:55.245Z,41.35
2019-06-27T17:10:25.027Z,42.12
2019-06-27T17:12:54.853Z,41.86
2019-06-27T17:15:24.765Z,42.18
2019-06-27T17:17:54.592Z,42.66
2019-06-27T17:20:24.462Z,42.10
2019-06-27T17:22:54.248Z,44.36
2019-06-27T17:25:24.096Z,44.36
2019-06-27T17:27:53.847Z,44.67
2019-06-27T17:30:23.786Z,44.74
2019-06-27T17:32:53.483Z,44.14
2019-06-27T17:35:23.341Z,44.36
2019-06-27T17:37:53.218Z,44.37
2019-06-27T17:40:23.553Z,43.51
2019-06-27T17:42:53.345Z,44.57
2019-06-27T17:45:26.296Z,44.57
2019-06-27T17:47:55.237Z,46.14
2019-06-27T17:50:25.017Z,45.70
2019-06-27T17:52:55.178Z,46.27
2019-06-27T17:55:25.028Z,46.81
2019-06-27T17:57:54.915Z,46.08
2019-06-27T18:00:24.762Z,46.14
2019-06-27T18:02:54.637Z,46.60
2019-06-27T18:05:24.693Z,46.68
2019-06-27T18:07:54.525Z,46.25
2019-06-27T18:10:24.370Z,46.58
2019-06-27T18:12:54.259Z,47.46
2019-06-27T18:15:24.043Z,47.71
2019-06-27T18:17:53.808Z,46.96
2019-06-27T18:20:23.695Z,47.62
2019-06-27T18:22:53.679Z,48.78
2019-06-27T18:25:23.454Z,49.02
2019-06-27T18:27:53.148Z,49.11
2019-06-27T18:30:22.960Z,49.68
2019-06-27T18:32:52.835Z,50.68
2019-06-27T18:35:22.619Z,52.41
2019-06-27T18:37:52.423Z,53.12
2019-06-27T18:40:22.354Z,54.12
2019-06-27T18:42:52.142Z,53.84
2019-06-27T18:45:21.982Z,54.24
2019-06-27T18:47:51.857Z,54.23
2019-06-27T18:50:21.693Z,55.01
2019-06-27T18:52:51.470Z,55.76
2019-06-27T18:55:21.443Z,56.13
2019-06-27T18:57:51.187Z,56.97
2019-06-27T19:00:21.236Z,56.17
2019-06-27T19:02:51.027Z,56.55
2019-06-27T19:05:20.900Z,57.10
2019-06-27T19:07:50.666Z,56.50
2019-06-27T19:10:21.554Z,56.82
2019-06-27T19:12:51.351Z,57.40
2019-06-27T19:15:21.195Z,58.21
2019-06-27T19:17:51.004Z,58.14
2019-06-27T19:20:28.250Z,57.68
2019-06-27T19:23:08.363Z,59.13
2019-06-27T19:25:42.780Z,58.45
2019-06-27T19:28:12.491Z,58.90
2019-06-27T19:30:42.290Z,58.84
2019-06-27T19:33:12.105Z,59.46
2019-06-27T19:35:41.874Z,59.47
2019-06-27T19:38:11.636Z,60.07
2019-06-27T19:40:41.513Z,60.34
2019-06-27T19:43:26.563Z,60.46
2019-06-27T19:45:42.993Z,61.18
2019-06-27T19:48:12.864Z,62.06
2019-06-27T19:50:42.638Z,63.12
2019-06-27T19:53:12.490Z,62.88
2019-06-27T19:55:42.253Z,62.93
2019-06-27T19:58:12.070Z,64.48
2019-06-27T20:00:42.503Z,63.62
2019-06-27T20:03:12.403Z,64.32
2019-06-27T20:05:42.240Z,65.15
2019-06-27T20:08:19.183Z,65.35
2019-06-27T20:10:43.686Z,66.39
2019-06-27T20:13:13.569Z,65.93
2019-06-27T20:15:43.296Z,67.07
2019-06-27T20:18:13.069Z,67.69
2019-06-27T20:20:42.873Z,68.14
2019-06-27T20:23:12.706Z,67.65
2019-06-27T20:25:42.568Z,67.72
2019-06-27T20:28:12.248Z,69.16
2019-06-27T20:30:42.021Z,68.55
2019-06-27T20:33:11.882Z,68.67
2019-06-27T20:35:42.245Z,68.81
2019-06-27T20:38:12.201Z,68.34
2019-06-27T20:40:42.064Z,68.80
2019-06-27T20:43:11.807Z,69.65
2019-06-27T20:45:41.570Z,69.27
2019-06-27T20:48:11.421Z,68.70
2019-06-27T20:50:41.864Z,71.02
2019-06-27T20:53:11.743Z,70.92
2019-06-27T20:55:41.485Z,69.83
2019-06-27T20:58:11.391Z,71.35
2019-06-27T21:00:41.244Z,70.64
2019-06-27T21:03:10.940Z,71.27
2019-06-27T21:05:40.909Z,70.22
2019-06-27T21:08:10.729Z,69.65
2019-06-27T21:10:40.728Z,68.17
2019-06-27T21:13:10.431Z,67.48
2019-06-27T21:15:40.302Z,65.87
2019-06-27T21:18:10.121Z,66.69
2019-06-27T21:20:39.966Z,66.47
2019-06-27T21:23:09.828Z,65.64
2019-06-27T21:25:39.506Z,65.33
2019-06-27T21:28:09.340Z,65.13
2019-06-27T21:30:39.181Z,64.86
2019-06-27T21:33:08.911Z,64.67
2019-06-27T21:35:38.638Z,64.48
2019-06-27T21:38:08.400Z,64.89
2019-06-27T21:40:38.349Z,64.37
2019-06-27T21:43:08.206Z,64.42
2019-06-27T21:45:37.951Z,64.28
2019-06-27T21:48:07.849Z,64.60
2019-06-27T21:50:37.744Z,63.68
2019-06-27T21:53:07.437Z,64.92
2019-06-27T21:55:37.392Z,65.11
2019-06-27T21:58:07.199Z,65.10
2019-06-27T22:00:37.537Z,64.98
2019-06-27T22:03:07.418Z,65.17
2019-06-27T22:05:37.249Z,65.84
2019-06-27T22:08:07.234Z,65.02
2019-06-27T22:10:37.155Z,65.38
2019-06-27T22:13:06.922Z,65.33
2019-06-27T22:15:36.776Z,65.72
2019-06-27T22:18:06.648Z,66.38
2019-06-27T22:20:39.537Z,65.69
2019-06-27T22:23:08.086Z,65.32
2019-06-27T22:25:40.737Z,64.75
2019-06-27T22:28:09.368Z,65.06
2019-06-27T22:30:39.164Z,64.86
2019-06-27T22:33:08.918Z,65.33
2019-06-27T22:35:38.741Z,65.78
2019-06-27T22:38:26.263Z,65.83
2019-06-27T22:41:13.930Z,66.14
2019-06-27T22:44:01.215Z,65.89
2019-06-27T22:46:49.408Z,66.25
2019-06-27T22:49:18.472Z,66.48
2019-06-27T22:52:06.382Z,65.90
2019-06-27T22:54:37.875Z,65.92
2019-06-27T22:57:07.640Z,65.74
2019-06-27T22:59:37.505Z,65.66
2019-06-27T23:02:07.188Z,66.47
2019-06-27T23:04:37.024Z,65.88
2019-06-27T23:07:06.789Z,65.62
2019-06-27T23:09:36.511Z,65.93
2019-06-27T23:12:06.301Z,66.15
2019-06-27T23:14:36.032Z,66.84
2019-06-27T23:17:05.827Z,66.08
2019-06-27T23:19:35.671Z,65.33
2019-06-27T23:22:05.805Z,65.91
2019-06-27T23:24:35.878Z,66.52
2019-06-27T23:27:05.713Z,65.82
2019-06-27T23:29:35.459Z,66.24
2019-06-27T23:32:05.189Z,66.22
2019-06-27T23:34:35.081Z,66.80
2019-06-27T23:37:04.852Z,67.01
2019-06-27T23:39:34.683Z,66.59
2019-06-27T23:42:04.620Z,66.82
2019-06-27T23:44:34.309Z,66.44
2019-06-27T23:47:03.992Z,67.26
2019-06-27T23:49:33.769Z,66.51
2019-06-27T23:52:03.490Z,66.89
2019-06-27T23:54:33.227Z,66.70
2019-06-27T23:57:03.253Z,65.97
2019-06-27T23:59:32.962Z,66.42
